Atlanta, NE

8:50 AM CST on December 29, 2014 (GMT -0600)
Brewster | Change Station
CLOSE
Current Station
Airport
Location: Holdrege,
Elevation: 2310 ft
Nearby Weather Stations
Active Advisory: Wind Chill Advisory

Elev 2310 ft 40.45 °N, 99.34 °W | Updated 15 minutes ago

Light Snow
Light Snow
19 °F
Feels Like 5 °F
N
16
Wind Variable Wind from NNE

Today
High -- | Low -- °F
--% Chance of Precip.
Yesterday
High -- | Low -- °F
Precip. -- in
8:00 AM 5:19 PM
First Quarter, 59% visible
Pressure 30.26 in
Visibility 4.0 miles
Clouds Overcast 700 ft
Windchill 5 °F
Dew Point 17 °F
Humidity 91%
Rainfall 0.00 in
Snow Depth Not available.
UV 0 out of 12
Pollen .10 out of 12
Air Quality Not available.
Flu Activity Not available.
METAR KHDE 291435Z AUTO 03014KT 4SM -SN OVC007 M07/M08 A3026 RMK AO2 T10701083

More Conditions Fewer Conditions

Pressure 30.26 in
Visibility 4.0 miles
Clouds Overcast 700 ft
Windchill 5 °F
Dew Point 17 °F
Humidity 91%
Rainfall 0.00 in
Snow Depth Not available.
UV 0 out of 12
Pollen .10 out of 12
Air Quality Not available.
Flu Activity Not available.
METAR KHDE 291435Z AUTO 03014KT 4SM -SN OVC007 M07/M08 A3026 RMK AO2 T10701083

More Conditions Fewer Conditions

10-Day Weather Forecast

Almanac

Astronomy

Dec. 29, 2014 Rise Set
Actual Time
Civil Twilight
Nautical Twilight
Astronomical Twilight
Moon
Length of Visible Light
Length of Day
Tomorrow will be .
, % of the Moon is Illuminated

Today's Extremes

State Highs State Lows

Community

WunderPhotos

Upload Photos

1,781,591 photos uploaded!

WunderBlogs® & News

Nearby

Air Quality

  Air Quality AQ Index Pollutant
Not available.

Snow Depth

Station Depth Elevation

Earthquake Activity

City Distance Mag. Time & Date
Minimum magnitude displayed is 2.5.

Coastal Water Temperatures

Place Temperature

Nearby Weather Stations